sensor_id;sensor_type;location;lat;lon;timestamp;P1;durP1;ratioP1;P2;durP2;ratioP2
20449;SDS011;10384;51.940;8.432;2024-02-28T00:00:54;33.17;;;11.93;;
20449;SDS011;10384;51.940;8.432;2024-02-28T00:03:20;31.33;;;11.57;;
20449;SDS011;10384;51.940;8.432;2024-02-28T00:05:48;33.20;;;11.70;;
20449;SDS011;10384;51.940;8.432;2024-02-28T00:08:14;30.03;;;11.30;;
20449;SDS011;10384;51.940;8.432;2024-02-28T00:10:42;30.87;;;11.10;;
20449;SDS011;10384;51.940;8.432;2024-02-28T00:13:08;27.33;;;10.13;;
20449;SDS011;10384;51.940;8.432;2024-02-28T00:15:33;30.30;;;10.90;;
20449;SDS011;10384;51.940;8.432;2024-02-28T00:17:59;30.03;;;10.83;;
20449;SDS011;10384;51.940;8.432;2024-02-28T00:20:25;30.23;;;10.93;;
20449;SDS011;10384;51.940;8.432;2024-02-28T00:22:53;31.03;;;10.37;;
20449;SDS011;10384;51.940;8.432;2024-02-28T00:25:19;30.00;;;11.43;;
20449;SDS011;10384;51.940;8.432;2024-02-28T00:27:45;31.70;;;11.60;;
20449;SDS011;10384;51.940;8.432;2024-02-28T00:30:11;31.20;;;9.83;;
20449;SDS011;10384;51.940;8.432;2024-02-28T00:32:37;31.50;;;10.90;;
20449;SDS011;10384;51.940;8.432;2024-02-28T00:35:03;27.60;;;10.77;;
20449;SDS011;10384;51.940;8.432;2024-02-28T00:37:29;31.80;;;11.67;;
20449;SDS011;10384;51.940;8.432;2024-02-28T00:39:55;32.87;;;11.10;;
20449;SDS011;10384;51.940;8.432;2024-02-28T00:42:21;28.53;;;10.67;;
20449;SDS011;10384;51.940;8.432;2024-02-28T00:44:47;28.17;;;10.53;;
20449;SDS011;10384;51.940;8.432;2024-02-28T00:47:13;30.13;;;10.33;;
20449;SDS011;10384;51.940;8.432;2024-02-28T00:49:39;29.10;;;11.70;;
20449;SDS011;10384;51.940;8.432;2024-02-28T00:52:05;34.13;;;12.30;;
20449;SDS011;10384;51.940;8.432;2024-02-28T00:54:31;31.43;;;12.83;;
20449;SDS011;10384;51.940;8.432;2024-02-28T00:56:57;31.53;;;12.33;;
20449;SDS011;10384;51.940;8.432;2024-02-28T00:59:24;30.67;;;11.53;;
20449;SDS011;10384;51.940;8.432;2024-02-28T01:01:50;34.07;;;12.33;;
20449;SDS011;10384;51.940;8.432;2024-02-28T01:04:16;39.00;;;13.93;;
20449;SDS011;10384;51.940;8.432;2024-02-28T01:06:42;38.63;;;13.37;;
20449;SDS011;10384;51.940;8.432;2024-02-28T01:09:08;35.77;;;12.67;;
20449;SDS011;10384;51.940;8.432;2024-02-28T01:11:34;32.40;;;11.60;;
20449;SDS011;10384;51.940;8.432;2024-02-28T01:14:00;33.53;;;12.23;;
20449;SDS011;10384;51.940;8.432;2024-02-28T01:16:26;29.17;;;11.40;;
20449;SDS011;10384;51.940;8.432;2024-02-28T01:18:53;35.60;;;11.60;;
20449;SDS011;10384;51.940;8.432;2024-02-28T01:21:19;33.77;;;12.27;;
20449;SDS011;10384;51.940;8.432;2024-02-28T01:23:45;28.73;;;10.97;;
20449;SDS011;10384;51.940;8.432;2024-02-28T01:26:11;29.63;;;10.63;;
20449;SDS011;10384;51.940;8.432;2024-02-28T01:28:37;35.53;;;11.97;;
20449;SDS011;10384;51.940;8.432;2024-02-28T01:31:03;27.97;;;10.27;;
20449;SDS011;10384;51.940;8.432;2024-02-28T01:33:30;30.43;;;11.60;;
20449;SDS011;10384;51.940;8.432;2024-02-28T01:35:57;33.30;;;10.73;;
20449;SDS011;10384;51.940;8.432;2024-02-28T01:38:23;32.10;;;11.37;;
20449;SDS011;10384;51.940;8.432;2024-02-28T01:40:51;33.47;;;12.13;;
20449;SDS011;10384;51.940;8.432;2024-02-28T01:43:17;31.13;;;10.67;;
20449;SDS011;10384;51.940;8.432;2024-02-28T01:45:43;33.33;;;12.10;;
20449;SDS011;10384;51.940;8.432;2024-02-28T01:48:09;27.87;;;10.30;;
20449;SDS011;10384;51.940;8.432;2024-02-28T01:50:36;31.20;;;11.10;;
20449;SDS011;10384;51.940;8.432;2024-02-28T01:53:03;30.37;;;10.80;;
20449;SDS011;10384;51.940;8.432;2024-02-28T01:55:29;30.80;;;11.10;;
20449;SDS011;10384;51.940;8.432;2024-02-28T01:57:55;32.53;;;11.07;;
20449;SDS011;10384;51.940;8.432;2024-02-28T02:00:21;32.43;;;11.70;;
20449;SDS011;10384;51.940;8.432;2024-02-28T02:02:49;34.07;;;11.00;;
20449;SDS011;10384;51.940;8.432;2024-02-28T02:05:15;29.70;;;10.83;;
20449;SDS011;10384;51.940;8.432;2024-02-28T02:07:43;32.90;;;11.27;;
20449;SDS011;10384;51.940;8.432;2024-02-28T02:10:09;28.80;;;9.77;;
20449;SDS011;10384;51.940;8.432;2024-02-28T02:12:37;31.03;;;10.67;;
20449;SDS011;10384;51.940;8.432;2024-02-28T02:15:03;32.77;;;11.13;;
20449;SDS011;10384;51.940;8.432;2024-02-28T02:17:29;32.47;;;11.07;;
20449;SDS011;10384;51.940;8.432;2024-02-28T02:19:55;26.93;;;10.27;;
20449;SDS011;10384;51.940;8.432;2024-02-28T02:22:21;37.93;;;10.87;;
20449;SDS011;10384;51.940;8.432;2024-02-28T02:24:48;34.77;;;11.13;;
20449;SDS011;10384;51.940;8.432;2024-02-28T02:27:14;36.17;;;10.93;;
20449;SDS011;10384;51.940;8.432;2024-02-28T02:29:40;26.70;;;9.23;;
20449;SDS011;10384;51.940;8.432;2024-02-28T02:32:06;31.60;;;11.43;;
20449;SDS011;10384;51.940;8.432;2024-02-28T02:34:32;32.53;;;11.07;;
20449;SDS011;10384;51.940;8.432;2024-02-28T02:36:59;30.60;;;10.77;;
20449;SDS011;10384;51.940;8.432;2024-02-28T02:39:25;32.40;;;11.07;;
20449;SDS011;10384;51.940;8.432;2024-02-28T02:41:51;30.53;;;11.83;;
20449;SDS011;10384;51.940;8.432;2024-02-28T02:44:17;25.97;;;9.80;;
20449;SDS011;10384;51.940;8.432;2024-02-28T02:46:43;35.00;;;10.87;;
20449;SDS011;10384;51.940;8.432;2024-02-28T02:49:09;31.07;;;11.17;;
20449;SDS011;10384;51.940;8.432;2024-02-28T02:51:35;31.47;;;10.83;;
20449;SDS011;10384;51.940;8.432;2024-02-28T02:54:01;29.50;;;10.53;;
20449;SDS011;10384;51.940;8.432;2024-02-28T02:56:27;33.80;;;10.90;;
20449;SDS011;10384;51.940;8.432;2024-02-28T02:58:53;34.37;;;11.37;;
20449;SDS011;10384;51.940;8.432;2024-02-28T03:01:19;34.90;;;11.53;;
20449;SDS011;10384;51.940;8.432;2024-02-28T03:03:45;34.50;;;11.70;;
20449;SDS011;10384;51.940;8.432;2024-02-28T03:06:11;37.23;;;11.93;;
20449;SDS011;10384;51.940;8.432;2024-02-28T03:08:37;37.40;;;12.07;;
20449;SDS011;10384;51.940;8.432;2024-02-28T03:11:03;73.30;;;12.50;;
20449;SDS011;10384;51.940;8.432;2024-02-28T03:13:32;38.90;;;12.00;;
20449;SDS011;10384;51.940;8.432;2024-02-28T03:15:57;34.30;;;11.30;;
20449;SDS011;10384;51.940;8.432;2024-02-28T03:18:24;45.20;;;12.33;;
20449;SDS011;10384;51.940;8.432;2024-02-28T03:20:49;40.63;;;11.20;;
20449;SDS011;10384;51.940;8.432;2024-02-28T03:23:15;56.83;;;12.07;;
20449;SDS011;10384;51.940;8.432;2024-02-28T03:25:42;36.30;;;11.87;;
20449;SDS011;10384;51.940;8.432;2024-02-28T03:28:07;37.03;;;11.47;;
20449;SDS011;10384;51.940;8.432;2024-02-28T03:30:33;41.67;;;12.23;;
20449;SDS011;10384;51.940;8.432;2024-02-28T03:32:59;38.13;;;11.70;;
20449;SDS011;10384;51.940;8.432;2024-02-28T03:35:25;43.23;;;12.93;;
20449;SDS011;10384;51.940;8.432;2024-02-28T03:37:51;34.10;;;11.90;;
20449;SDS011;10384;51.940;8.432;2024-02-28T03:40:17;41.83;;;12.13;;
20449;SDS011;10384;51.940;8.432;2024-02-28T03:42:43;44.60;;;11.53;;
20449;SDS011;10384;51.940;8.432;2024-02-28T03:45:09;43.27;;;11.07;;
20449;SDS011;10384;51.940;8.432;2024-02-28T03:47:35;38.00;;;10.80;;
20449;SDS011;10384;51.940;8.432;2024-02-28T03:50:01;78.10;;;13.10;;
20449;SDS011;10384;51.940;8.432;2024-02-28T03:52:28;59.83;;;12.50;;
20449;SDS011;10384;51.940;8.432;2024-02-28T03:54:55;35.40;;;11.77;;
20449;SDS011;10384;51.940;8.432;2024-02-28T03:57:22;35.83;;;11.00;;
20449;SDS011;10384;51.940;8.432;2024-02-28T03:59:48;36.90;;;11.97;;
20449;SDS011;10384;51.940;8.432;2024-02-28T04:02:14;33.33;;;10.67;;
20449;SDS011;10384;51.940;8.432;2024-02-28T04:04:40;44.33;;;11.30;;
20449;SDS011;10384;51.940;8.432;2024-02-28T04:07:06;31.33;;;11.53;;
20449;SDS011;10384;51.940;8.432;2024-02-28T04:09:32;43.60;;;12.57;;
20449;SDS011;10384;51.940;8.432;2024-02-28T04:11:58;38.33;;;11.80;;
20449;SDS011;10384;51.940;8.432;2024-02-28T04:14:24;37.23;;;11.67;;
20449;SDS011;10384;51.940;8.432;2024-02-28T04:16:50;36.43;;;11.07;;
20449;SDS011;10384;51.940;8.432;2024-02-28T04:19:16;34.17;;;11.30;;
20449;SDS011;10384;51.940;8.432;2024-02-28T04:21:42;38.50;;;11.20;;
20449;SDS011;10384;51.940;8.432;2024-02-28T04:24:08;41.47;;;11.80;;
20449;SDS011;10384;51.940;8.432;2024-02-28T04:26:34;44.20;;;12.50;;
20449;SDS011;10384;51.940;8.432;2024-02-28T04:29:00;40.47;;;12.33;;
20449;SDS011;10384;51.940;8.432;2024-02-28T04:31:30;58.93;;;12.03;;
20449;SDS011;10384;51.940;8.432;2024-02-28T04:33:56;63.37;;;12.40;;
20449;SDS011;10384;51.940;8.432;2024-02-28T04:36:22;39.03;;;11.67;;
20449;SDS011;10384;51.940;8.432;2024-02-28T04:38:48;46.53;;;11.73;;
20449;SDS011;10384;51.940;8.432;2024-02-28T04:41:14;46.70;;;12.27;;
20449;SDS011;10384;51.940;8.432;2024-02-28T04:43:40;35.80;;;11.70;;
20449;SDS011;10384;51.940;8.432;2024-02-28T04:46:06;67.57;;;14.03;;
20449;SDS011;10384;51.940;8.432;2024-02-28T04:48:32;55.87;;;12.83;;
20449;SDS011;10384;51.940;8.432;2024-02-28T04:50:59;48.47;;;11.03;;
20449;SDS011;10384;51.940;8.432;2024-02-28T04:53:27;38.57;;;11.13;;
20449;SDS011;10384;51.940;8.432;2024-02-28T04:55:53;44.47;;;12.70;;
20449;SDS011;10384;51.940;8.432;2024-02-28T04:58:19;48.13;;;12.10;;
20449;SDS011;10384;51.940;8.432;2024-02-28T05:00:45;51.60;;;12.33;;
20449;SDS011;10384;51.940;8.432;2024-02-28T05:03:11;49.07;;;12.87;;
20449;SDS011;10384;51.940;8.432;2024-02-28T05:05:37;43.77;;;12.17;;
20449;SDS011;10384;51.940;8.432;2024-02-28T05:08:04;57.87;;;12.40;;
20449;SDS011;10384;51.940;8.432;2024-02-28T05:10:30;49.17;;;12.07;;
20449;SDS011;10384;51.940;8.432;2024-02-28T05:12:56;34.60;;;12.10;;
20449;SDS011;10384;51.940;8.432;2024-02-28T05:15:22;48.27;;;12.63;;
20449;SDS011;10384;51.940;8.432;2024-02-28T05:17:50;42.27;;;11.57;;
20449;SDS011;10384;51.940;8.432;2024-02-28T05:20:17;47.80;;;10.67;;
20449;SDS011;10384;51.940;8.432;2024-02-28T05:22:43;37.53;;;11.53;;
20449;SDS011;10384;51.940;8.432;2024-02-28T05:25:09;37.60;;;11.77;;
20449;SDS011;10384;51.940;8.432;2024-02-28T05:27:35;48.37;;;11.33;;
20449;SDS011;10384;51.940;8.432;2024-02-28T05:30:01;47.37;;;12.90;;
20449;SDS011;10384;51.940;8.432;2024-02-28T05:32:30;46.83;;;12.70;;
20449;SDS011;10384;51.940;8.432;2024-02-28T05:35:02;60.60;;;13.30;;
20449;SDS011;10384;51.940;8.432;2024-02-28T05:37:28;38.70;;;11.67;;
20449;SDS011;10384;51.940;8.432;2024-02-28T05:39:54;37.50;;;12.20;;
20449;SDS011;10384;51.940;8.432;2024-02-28T05:42:20;38.83;;;12.97;;
20449;SDS011;10384;51.940;8.432;2024-02-28T05:44:47;37.43;;;12.20;;
20449;SDS011;10384;51.940;8.432;2024-02-28T05:47:13;40.47;;;12.13;;
20449;SDS011;10384;51.940;8.432;2024-02-28T05:49:39;48.23;;;11.40;;
20449;SDS011;10384;51.940;8.432;2024-02-28T05:52:05;47.90;;;11.77;;
20449;SDS011;10384;51.940;8.432;2024-02-28T05:54:31;54.30;;;14.73;;
20449;SDS011;10384;51.940;8.432;2024-02-28T05:56:59;35.90;;;10.63;;
20449;SDS011;10384;51.940;8.432;2024-02-28T05:59:25;44.13;;;13.10;;
20449;SDS011;10384;51.940;8.432;2024-02-28T06:01:51;44.10;;;11.73;;
20449;SDS011;10384;51.940;8.432;2024-02-28T06:04:17;52.97;;;12.50;;
20449;SDS011;10384;51.940;8.432;2024-02-28T06:06:43;44.00;;;11.97;;
20449;SDS011;10384;51.940;8.432;2024-02-28T06:09:10;38.43;;;10.50;;
20449;SDS011;10384;51.940;8.432;2024-02-28T06:11:36;40.60;;;10.87;;
20449;SDS011;10384;51.940;8.432;2024-02-28T06:14:02;45.80;;;11.77;;
20449;SDS011;10384;51.940;8.432;2024-02-28T06:16:29;59.93;;;11.47;;
20449;SDS011;10384;51.940;8.432;2024-02-28T06:18:55;68.10;;;12.70;;
20449;SDS011;10384;51.940;8.432;2024-02-28T06:21:22;51.23;;;12.60;;
20449;SDS011;10384;51.940;8.432;2024-02-28T06:23:48;50.40;;;14.10;;
20449;SDS011;10384;51.940;8.432;2024-02-28T06:26:14;53.07;;;11.87;;
20449;SDS011;10384;51.940;8.432;2024-02-28T06:28:45;38.27;;;11.53;;
20449;SDS011;10384;51.940;8.432;2024-02-28T06:31:15;50.27;;;11.83;;
20449;SDS011;10384;51.940;8.432;2024-02-28T06:33:41;50.67;;;11.57;;
20449;SDS011;10384;51.940;8.432;2024-02-28T06:36:07;61.40;;;14.13;;
20449;SDS011;10384;51.940;8.432;2024-02-28T06:38:33;55.87;;;14.33;;
20449;SDS011;10384;51.940;8.432;2024-02-28T06:41:03;57.10;;;11.80;;
20449;SDS011;10384;51.940;8.432;2024-02-28T06:43:29;44.27;;;10.97;;
20449;SDS011;10384;51.940;8.432;2024-02-28T06:45:55;48.93;;;12.73;;
20449;SDS011;10384;51.940;8.432;2024-02-28T06:48:21;57.17;;;12.77;;
20449;SDS011;10384;51.940;8.432;2024-02-28T06:50:47;43.23;;;11.93;;
20449;SDS011;10384;51.940;8.432;2024-02-28T06:53:13;60.43;;;13.77;;
20449;SDS011;10384;51.940;8.432;2024-02-28T06:55:39;54.43;;;13.13;;
20449;SDS011;10384;51.940;8.432;2024-02-28T06:58:05;51.17;;;13.07;;
20449;SDS011;10384;51.940;8.432;2024-02-28T07:00:31;52.83;;;11.60;;
20449;SDS011;10384;51.940;8.432;2024-02-28T07:02:57;52.10;;;12.60;;
20449;SDS011;10384;51.940;8.432;2024-02-28T07:05:23;60.73;;;13.53;;
20449;SDS011;10384;51.940;8.432;2024-02-28T07:07:49;63.33;;;13.10;;
20449;SDS011;10384;51.940;8.432;2024-02-28T07:10:15;51.57;;;13.00;;
20449;SDS011;10384;51.940;8.432;2024-02-28T07:12:41;48.70;;;12.73;;
20449;SDS011;10384;51.940;8.432;2024-02-28T07:15:07;62.67;;;13.00;;
20449;SDS011;10384;51.940;8.432;2024-02-28T07:17:33;57.97;;;13.17;;
20449;SDS011;10384;51.940;8.432;2024-02-28T07:19:59;47.53;;;12.53;;
20449;SDS011;10384;51.940;8.432;2024-02-28T07:22:25;41.27;;;11.07;;
20449;SDS011;10384;51.940;8.432;2024-02-28T07:24:51;55.97;;;13.17;;
20449;SDS011;10384;51.940;8.432;2024-02-28T07:27:17;44.77;;;12.97;;
20449;SDS011;10384;51.940;8.432;2024-02-28T07:29:43;61.07;;;12.90;;
20449;SDS011;10384;51.940;8.432;2024-02-28T07:32:09;54.90;;;12.67;;
20449;SDS011;10384;51.940;8.432;2024-02-28T07:34:35;55.40;;;13.13;;
20449;SDS011;10384;51.940;8.432;2024-02-28T07:37:01;46.80;;;12.77;;
20449;SDS011;10384;51.940;8.432;2024-02-28T07:39:27;60.33;;;13.50;;
20449;SDS011;10384;51.940;8.432;2024-02-28T07:41:53;62.07;;;14.30;;
20449;SDS011;10384;51.940;8.432;2024-02-28T07:44:19;59.50;;;14.17;;
20449;SDS011;10384;51.940;8.432;2024-02-28T07:46:45;55.63;;;13.03;;
20449;SDS011;10384;51.940;8.432;2024-02-28T07:49:11;54.63;;;14.00;;
20449;SDS011;10384;51.940;8.432;2024-02-28T07:51:37;54.93;;;13.90;;
20449;SDS011;10384;51.940;8.432;2024-02-28T07:54:05;56.40;;;13.63;;
20449;SDS011;10384;51.940;8.432;2024-02-28T07:56:31;41.20;;;12.63;;
20449;SDS011;10384;51.940;8.432;2024-02-28T07:58:57;45.23;;;12.17;;
20449;SDS011;10384;51.940;8.432;2024-02-28T08:01:23;59.00;;;15.53;;
20449;SDS011;10384;51.940;8.432;2024-02-28T08:03:49;63.30;;;14.60;;
20449;SDS011;10384;51.940;8.432;2024-02-28T08:06:15;51.90;;;15.30;;
20449;SDS011;10384;51.940;8.432;2024-02-28T08:08:45;50.70;;;13.53;;
20449;SDS011;10384;51.940;8.432;2024-02-28T08:11:11;55.37;;;12.97;;
20449;SDS011;10384;51.940;8.432;2024-02-28T08:13:38;62.37;;;14.27;;
20449;SDS011;10384;51.940;8.432;2024-02-28T08:16:04;54.63;;;13.97;;
20449;SDS011;10384;51.940;8.432;2024-02-28T08:18:31;53.53;;;15.33;;
20449;SDS011;10384;51.940;8.432;2024-02-28T08:20:59;64.50;;;15.13;;
20449;SDS011;10384;51.940;8.432;2024-02-28T08:23:27;53.33;;;13.97;;
20449;SDS011;10384;51.940;8.432;2024-02-28T08:25:53;57.60;;;14.53;;
20449;SDS011;10384;51.940;8.432;2024-02-28T08:28:19;48.10;;;13.70;;
20449;SDS011;10384;51.940;8.432;2024-02-28T08:30:45;60.70;;;15.37;;
20449;SDS011;10384;51.940;8.432;2024-02-28T08:33:11;55.77;;;15.40;;
20449;SDS011;10384;51.940;8.432;2024-02-28T08:35:37;57.23;;;14.97;;
20449;SDS011;10384;51.940;8.432;2024-02-28T08:38:03;50.90;;;14.33;;
20449;SDS011;10384;51.940;8.432;2024-02-28T08:40:29;62.60;;;14.83;;
20449;SDS011;10384;51.940;8.432;2024-02-28T08:42:55;52.90;;;14.00;;
20449;SDS011;10384;51.940;8.432;2024-02-28T08:45:22;62.93;;;14.73;;
20449;SDS011;10384;51.940;8.432;2024-02-28T08:47:48;64.03;;;16.43;;
20449;SDS011;10384;51.940;8.432;2024-02-28T08:50:14;59.73;;;15.43;;
20449;SDS011;10384;51.940;8.432;2024-02-28T08:52:40;59.80;;;15.17;;
20449;SDS011;10384;51.940;8.432;2024-02-28T08:55:06;62.47;;;14.63;;
20449;SDS011;10384;51.940;8.432;2024-02-28T08:57:32;67.47;;;15.97;;
20449;SDS011;10384;51.940;8.432;2024-02-28T08:59:59;70.07;;;16.10;;
20449;SDS011;10384;51.940;8.432;2024-02-28T09:02:25;67.40;;;17.90;;
20449;SDS011;10384;51.940;8.432;2024-02-28T09:04:51;65.93;;;18.53;;
20449;SDS011;10384;51.940;8.432;2024-02-28T09:07:20;63.07;;;15.93;;
20449;SDS011;10384;51.940;8.432;2024-02-28T09:09:46;58.00;;;16.40;;
20449;SDS011;10384;51.940;8.432;2024-02-28T09:12:13;63.23;;;15.60;;
20449;SDS011;10384;51.940;8.432;2024-02-28T09:14:39;67.13;;;15.10;;
20449;SDS011;10384;51.940;8.432;2024-02-28T09:17:05;63.20;;;15.40;;
20449;SDS011;10384;51.940;8.432;2024-02-28T09:19:31;58.93;;;14.80;;
20449;SDS011;10384;51.940;8.432;2024-02-28T09:21:57;62.80;;;16.03;;
20449;SDS011;10384;51.940;8.432;2024-02-28T09:24:24;75.20;;;17.10;;
20449;SDS011;10384;51.940;8.432;2024-02-28T09:26:50;62.70;;;16.60;;
20449;SDS011;10384;51.940;8.432;2024-02-28T09:29:16;61.70;;;15.70;;
20449;SDS011;10384;51.940;8.432;2024-02-28T09:31:42;65.50;;;16.53;;
20449;SDS011;10384;51.940;8.432;2024-02-28T09:34:08;64.17;;;15.80;;
20449;SDS011;10384;51.940;8.432;2024-02-28T09:36:44;65.90;;;16.13;;
20449;SDS011;10384;51.940;8.432;2024-02-28T09:39:11;69.30;;;15.80;;
20449;SDS011;10384;51.940;8.432;2024-02-28T09:41:38;70.67;;;17.47;;
20449;SDS011;10384;51.940;8.432;2024-02-28T09:44:04;78.03;;;18.40;;
20449;SDS011;10384;51.940;8.432;2024-02-28T09:46:32;69.13;;;17.53;;
20449;SDS011;10384;51.940;8.432;2024-02-28T09:49:03;78.33;;;18.13;;
20449;SDS011;10384;51.940;8.432;2024-02-28T09:51:30;82.80;;;17.03;;
20449;SDS011;10384;51.940;8.432;2024-02-28T09:54:00;93.43;;;19.63;;
20449;SDS011;10384;51.940;8.432;2024-02-28T09:56:26;87.47;;;20.60;;
20449;SDS011;10384;51.940;8.432;2024-02-28T09:58:52;76.73;;;17.40;;
20449;SDS011;10384;51.940;8.432;2024-02-28T10:01:21;86.60;;;18.33;;
20449;SDS011;10384;51.940;8.432;2024-02-28T10:03:47;77.30;;;18.77;;
20449;SDS011;10384;51.940;8.432;2024-02-28T10:06:13;80.03;;;19.33;;
20449;SDS011;10384;51.940;8.432;2024-02-28T10:08:40;88.03;;;19.93;;
20449;SDS011;10384;51.940;8.432;2024-02-28T10:11:06;90.20;;;20.10;;
20449;SDS011;10384;51.940;8.432;2024-02-28T10:13:32;90.73;;;19.97;;
20449;SDS011;10384;51.940;8.432;2024-02-28T10:15:58;87.03;;;19.93;;
20449;SDS011;10384;51.940;8.432;2024-02-28T10:18:25;94.80;;;17.93;;
20449;SDS011;10384;51.940;8.432;2024-02-28T10:20:51;95.23;;;21.30;;
20449;SDS011;10384;51.940;8.432;2024-02-28T10:23:17;87.73;;;19.33;;
20449;SDS011;10384;51.940;8.432;2024-02-28T10:25:44;89.40;;;18.70;;
20449;SDS011;10384;51.940;8.432;2024-02-28T10:28:10;93.03;;;20.57;;
20449;SDS011;10384;51.940;8.432;2024-02-28T10:30:40;90.10;;;18.80;;
20449;SDS011;10384;51.940;8.432;2024-02-28T10:33:12;86.87;;;19.60;;
20449;SDS011;10384;51.940;8.432;2024-02-28T10:35:39;95.03;;;21.60;;
20449;SDS011;10384;51.940;8.432;2024-02-28T10:38:07;82.67;;;18.47;;
20449;SDS011;10384;51.940;8.432;2024-02-28T10:40:33;87.03;;;19.73;;
20449;SDS011;10384;51.940;8.432;2024-02-28T10:42:59;91.53;;;19.60;;
20449;SDS011;10384;51.940;8.432;2024-02-28T10:45:26;91.40;;;18.10;;
20449;SDS011;10384;51.940;8.432;2024-02-28T10:47:56;86.17;;;19.80;;
20449;SDS011;10384;51.940;8.432;2024-02-28T10:50:22;79.23;;;19.07;;
20449;SDS011;10384;51.940;8.432;2024-02-28T10:52:48;86.10;;;19.97;;
20449;SDS011;10384;51.940;8.432;2024-02-28T10:55:22;83.53;;;19.07;;
20449;SDS011;10384;51.940;8.432;2024-02-28T10:57:50;91.50;;;18.87;;
20449;SDS011;10384;51.940;8.432;2024-02-28T11:00:21;92.93;;;18.13;;
20449;SDS011;10384;51.940;8.432;2024-02-28T11:02:47;91.50;;;18.60;;
20449;SDS011;10384;51.940;8.432;2024-02-28T11:05:14;92.57;;;20.97;;
20449;SDS011;10384;51.940;8.432;2024-02-28T11:07:43;78.73;;;18.03;;
20449;SDS011;10384;51.940;8.432;2024-02-28T11:10:09;85.03;;;18.43;;
20449;SDS011;10384;51.940;8.432;2024-02-28T11:12:35;92.63;;;19.30;;
20449;SDS011;10384;51.940;8.432;2024-02-28T11:15:03;93.27;;;19.27;;
20449;SDS011;10384;51.940;8.432;2024-02-28T11:17:34;97.57;;;19.93;;
20449;SDS011;10384;51.940;8.432;2024-02-28T11:20:00;79.03;;;18.40;;
20449;SDS011;10384;51.940;8.432;2024-02-28T11:22:36;82.80;;;18.00;;
20449;SDS011;10384;51.940;8.432;2024-02-28T11:25:02;73.17;;;18.47;;
20449;SDS011;10384;51.940;8.432;2024-02-28T11:27:30;80.90;;;19.73;;
20449;SDS011;10384;51.940;8.432;2024-02-28T11:29:56;89.73;;;18.77;;
20449;SDS011;10384;51.940;8.432;2024-02-28T11:32:24;92.27;;;20.07;;
20449;SDS011;10384;51.940;8.432;2024-02-28T11:34:50;91.33;;;19.23;;
20449;SDS011;10384;51.940;8.432;2024-02-28T11:37:17;89.73;;;17.97;;
20449;SDS011;10384;51.940;8.432;2024-02-28T11:39:52;89.63;;;19.60;;
20449;SDS011;10384;51.940;8.432;2024-02-28T11:42:19;79.33;;;17.50;;
20449;SDS011;10384;51.940;8.432;2024-02-28T11:44:52;76.47;;;17.03;;
20449;SDS011;10384;51.940;8.432;2024-02-28T11:47:19;69.40;;;18.20;;
20449;SDS011;10384;51.940;8.432;2024-02-28T11:49:45;66.60;;;17.37;;
20449;SDS011;10384;51.940;8.432;2024-02-28T11:52:11;76.70;;;17.87;;
20449;SDS011;10384;51.940;8.432;2024-02-28T11:54:39;72.07;;;17.10;;
20449;SDS011;10384;51.940;8.432;2024-02-28T11:57:05;73.20;;;17.93;;
20449;SDS011;10384;51.940;8.432;2024-02-28T11:59:31;73.90;;;17.40;;
20449;SDS011;10384;51.940;8.432;2024-02-28T12:01:57;73.77;;;18.10;;
20449;SDS011;10384;51.940;8.432;2024-02-28T12:04:26;71.50;;;18.57;;
20449;SDS011;10384;51.940;8.432;2024-02-28T12:06:52;67.77;;;16.23;;
20449;SDS011;10384;51.940;8.432;2024-02-28T12:09:18;61.67;;;15.53;;
20449;SDS011;10384;51.940;8.432;2024-02-28T12:11:44;69.63;;;17.13;;
20449;SDS011;10384;51.940;8.432;2024-02-28T12:14:10;66.97;;;16.70;;
20449;SDS011;10384;51.940;8.432;2024-02-28T12:16:41;63.77;;;16.03;;
20449;SDS011;10384;51.940;8.432;2024-02-28T12:19:09;68.63;;;16.73;;
20449;SDS011;10384;51.940;8.432;2024-02-28T12:21:39;72.43;;;17.10;;
20449;SDS011;10384;51.940;8.432;2024-02-28T12:24:08;65.57;;;17.87;;
20449;SDS011;10384;51.940;8.432;2024-02-28T12:26:35;72.10;;;17.77;;
20449;SDS011;10384;51.940;8.432;2024-02-28T12:29:01;74.23;;;17.53;;
20449;SDS011;10384;51.940;8.432;2024-02-28T12:31:27;70.07;;;17.13;;
20449;SDS011;10384;51.940;8.432;2024-02-28T12:33:53;73.47;;;18.60;;
20449;SDS011;10384;51.940;8.432;2024-02-28T12:36:20;58.90;;;16.53;;
20449;SDS011;10384;51.940;8.432;2024-02-28T12:38:46;65.23;;;17.57;;
20449;SDS011;10384;51.940;8.432;2024-02-28T12:41:12;63.50;;;16.93;;
20449;SDS011;10384;51.940;8.432;2024-02-28T12:43:39;70.50;;;18.30;;
20449;SDS011;10384;51.940;8.432;2024-02-28T12:46:05;62.60;;;18.67;;
20449;SDS011;10384;51.940;8.432;2024-02-28T12:48:36;60.47;;;17.83;;
20449;SDS011;10384;51.940;8.432;2024-02-28T12:51:02;72.37;;;19.03;;
20449;SDS011;10384;51.940;8.432;2024-02-28T12:53:30;65.70;;;18.53;;
20449;SDS011;10384;51.940;8.432;2024-02-28T12:55:56;62.70;;;18.40;;
20449;SDS011;10384;51.940;8.432;2024-02-28T12:58:22;64.03;;;19.50;;
20449;SDS011;10384;51.940;8.432;2024-02-28T13:00:51;67.80;;;18.47;;
20449;SDS011;10384;51.940;8.432;2024-02-28T13:03:17;70.07;;;19.03;;
20449;SDS011;10384;51.940;8.432;2024-02-28T13:05:43;63.63;;;19.10;;
20449;SDS011;10384;51.940;8.432;2024-02-28T13:08:09;60.83;;;18.43;;
20449;SDS011;10384;51.940;8.432;2024-02-28T13:10:35;73.20;;;18.73;;
20449;SDS011;10384;51.940;8.432;2024-02-28T13:13:05;64.67;;;18.40;;
20449;SDS011;10384;51.940;8.432;2024-02-28T13:15:32;67.07;;;19.33;;
20449;SDS011;10384;51.940;8.432;2024-02-28T13:17:58;63.73;;;18.03;;
20449;SDS011;10384;51.940;8.432;2024-02-28T13:20:24;64.17;;;18.80;;
20449;SDS011;10384;51.940;8.432;2024-02-28T13:22:50;60.23;;;18.63;;
20449;SDS011;10384;51.940;8.432;2024-02-28T13:25:16;56.43;;;17.77;;
20449;SDS011;10384;51.940;8.432;2024-02-28T13:27:44;61.20;;;17.60;;
20449;SDS011;10384;51.940;8.432;2024-02-28T13:30:11;58.23;;;17.03;;
20449;SDS011;10384;51.940;8.432;2024-02-28T13:32:38;55.87;;;15.93;;
20449;SDS011;10384;51.940;8.432;2024-02-28T13:35:04;57.60;;;17.30;;
20449;SDS011;10384;51.940;8.432;2024-02-28T13:37:30;56.33;;;16.37;;
20449;SDS011;10384;51.940;8.432;2024-02-28T13:39:58;62.20;;;17.10;;
20449;SDS011;10384;51.940;8.432;2024-02-28T13:42:23;56.27;;;15.90;;
20449;SDS011;10384;51.940;8.432;2024-02-28T13:44:50;57.97;;;16.87;;
20449;SDS011;10384;51.940;8.432;2024-02-28T13:47:16;54.17;;;16.63;;
20449;SDS011;10384;51.940;8.432;2024-02-28T13:49:42;56.70;;;16.03;;
20449;SDS011;10384;51.940;8.432;2024-02-28T13:52:08;56.60;;;16.33;;
20449;SDS011;10384;51.940;8.432;2024-02-28T13:54:34;54.87;;;16.93;;
20449;SDS011;10384;51.940;8.432;2024-02-28T13:57:00;52.63;;;15.90;;
20449;SDS011;10384;51.940;8.432;2024-02-28T13:59:26;58.67;;;17.23;;
20449;SDS011;10384;51.940;8.432;2024-02-28T14:01:53;59.47;;;17.70;;
20449;SDS011;10384;51.940;8.432;2024-02-28T14:04:19;53.77;;;16.37;;
20449;SDS011;10384;51.940;8.432;2024-02-28T14:06:45;52.27;;;16.17;;
20449;SDS011;10384;51.940;8.432;2024-02-28T14:09:11;53.17;;;16.30;;
20449;SDS011;10384;51.940;8.432;2024-02-28T14:11:37;48.60;;;16.23;;
20449;SDS011;10384;51.940;8.432;2024-02-28T14:14:04;57.73;;;17.10;;
20449;SDS011;10384;51.940;8.432;2024-02-28T14:16:30;49.30;;;15.50;;